Popcorn, Indiana
Current Conditions -  °F | °C
As of 11:53 PM on Wednesday 26 Nov 2014 (Local Time) from KBMG Reporting Station
Light Snow Light Snow  
Wind Chill: 23°   Ceiling: 4600
Heat Index: 31°   Visibility: 5mi
Dew Point: 26°   Wind: 8mph
Humidity: 82%   Direction: 30°NNE
Pressure: 30.08"   Gusts: NA
Location:  38.9483°N, 86.6278°W
Report Text: KBMG 270453Z AUTO 03007KT 5SM -SN OVC046 M01/M03 A3008 RMK AO2 SLP192 P0000 T10061033 400331033
Loading
Personal Weather Stations






























Interactive Weather Map New forecast layout! Learn more

10-Day Weather Forecast

Advertisements
Track Severe Weather on mobile